Time;durP1;ratioP1;P1;durP2;ratioP2;P2;SDS_P1;SDS_P2;PMS_P1;PMS_P2;Temp;Humidity;BMP_temperature;BMP_pressure;BME280_temperature;BME280_humidity;BME280_pressure;Samples;Min_cycle;Max_cycle;Signal;HPM_P1;HPM_P2
2023/01/17 00:01:10;;;;;;;0.68;0.68;;;4.20;99.90;;;;;;5018738;28;20057;-70
2023/01/17 00:09:51;;;;;;;0.75;0.70;;;4.20;99.90;;;;;;5019164;28;20029;-70
2023/01/17 00:11:57;;;;;;;2.72;0.90;;;4.10;99.90;;;;;;5060873;22;20503;-68
2023/01/17 00:14:23;;;;;;;1.48;1.20;;;4.10;99.90;;;;;;5018854;28;20029;-67
2023/01/17 00:16:48;;;;;;;1.55;1.17;;;4.20;99.90;;;;;;5018470;28;20030;-67
2023/01/17 01:33:46;;;;;;;2.65;0.90;;;4.10;99.90;;;;;;5035391;28;20163;-66
2023/01/17 01:36:12;;;;;;;1.40;1.15;;;4.00;99.90;;;;;;5017591;28;20067;-66
2023/01/17 01:38:38;;;;;;;1.25;0.80;;;4.00;99.90;;;;;;5017303;28;20091;-66
2023/01/17 01:41:04;;;;;;;1.67;0.90;;;3.90;99.90;;;;;;5017193;28;20026;-66
2023/01/17 01:43:44;;;;;;;1.35;0.95;;;3.90;99.90;;;;;;5034761;28;20036;-66
2023/01/17 01:46:34;;;;;;;2.92;0.90;;;3.90;99.90;;;;;;5016915;28;20071;-67
2023/01/17 01:49:04;;;;;;;2.22;1.20;;;4.00;99.90;;;;;;5034726;28;20044;-66
2023/01/17 01:51:41;;;;;;;2.47;1.02;;;4.00;99.90;;;;;;5016634;28;20021;-67
2023/01/17 01:54:15;;;;;;;1.20;0.82;;;3.90;99.90;;;;;;5017431;28;20026;-66
2023/01/17 01:56:41;;;;;;;4.15;1.08;;;3.80;99.90;;;;;;5034493;28;20025;-66
2023/01/17 01:59:09;;;;;;;2.22;1.30;;;3.80;99.90;;;;;;5016585;28;20113;-66
2023/01/17 02:01:35;;;;;;;2.15;1.10;;;3.80;99.90;;;;;;5016436;28;20036;-66
2023/01/17 02:04:02;;;;;;;2.33;1.02;;;3.80;99.90;;;;;;5034541;28;20022;-67
2023/01/17 02:06:34;;;;;;;2.28;1.10;;;3.80;99.90;;;;;;5016792;28;20025;-67
2023/01/17 02:09:04;;;;;;;3.88;0.95;;;3.90;99.90;;;;;;5016607;28;20021;-67
2023/01/17 02:11:31;;;;;;;5.28;0.90;;;3.80;99.90;;;;;;5016263;28;20021;-67
2023/01/17 02:13:56;;;;;;;4.30;1.05;;;3.80;99.90;;;;;;5034495;28;20021;-67
2023/01/17 02:16:43;;;;;;;2.58;1.45;;;3.80;99.90;;;;;;5016406;28;20035;-67
2023/01/17 02:19:46;;;;;;;1.50;0.85;;;3.80;99.90;;;;;;5034117;28;20080;-66
2023/01/17 02:22:39;;;;;;;1.40;0.80;;;3.80;99.90;;;;;;5016694;28;20036;-66
2023/01/17 02:25:29;;;;;;;1.95;0.73;;;3.80;99.90;;;;;;5016065;28;20064;-66
2023/01/17 02:28:32;;;;;;;2.20;0.70;;;3.80;99.90;;;;;;5033964;28;20029;-66
2023/01/17 02:31:24;;;;;;;2.78;1.00;;;3.90;99.90;;;;;;5016978;28;20071;-66
2023/01/17 02:34:03;;;;;;;3.13;0.80;;;3.90;99.90;;;;;;5015868;28;20029;-66
2023/01/17 02:36:36;;;;;;;1.55;1.10;;;3.90;99.90;;;;;;5033727;28;20037;-66
2023/01/17 02:39:11;;;;;;;1.48;0.90;;;3.90;99.90;;;;;;5016263;28;20025;-66
2023/01/17 02:41:41;;;;;;;2.25;0.80;;;3.80;99.90;;;;;;5015930;28;20025;-66
2023/01/17 02:44:09;;;;;;;1.35;0.75;;;3.90;99.90;;;;;;5034117;28;20030;-67
2023/01/17 02:46:48;;;;;;;4.03;0.75;;;3.90;99.90;;;;;;5033451;28;20033;-67
2023/01/17 02:49:16;;;;;;;1.40;1.08;;;4.00;99.90;;;;;;5015817;28;20029;-67
2023/01/17 02:51:52;;;;;;;1.92;1.10;;;4.00;99.90;;;;;;5015652;28;20064;-67
2023/01/17 02:54:41;;;;;;;2.70;0.90;;;3.90;99.90;;;;;;5033578;28;20025;-67
2023/01/17 02:57:31;;;;;;;1.63;0.80;;;3.80;99.90;;;;;;5033495;28;20032;-67
2023/01/17 03:00:26;;;;;;;4.05;0.63;;;3.80;99.90;;;;;;5015699;28;20032;-67
2023/01/17 03:03:13;;;;;;;2.83;0.90;;;3.70;99.90;;;;;;5032457;28;20087;-67
2023/01/17 03:05:45;;;;;;;2.83;1.00;;;3.80;99.90;;;;;;5033072;28;20108;-66
2023/01/17 03:08:12;;;;;;;1.17;0.88;;;3.70;99.90;;;;;;5015658;28;20022;-67
2023/01/17 03:10:39;;;;;;;0.93;0.60;;;3.70;99.90;;;;;;5015512;28;20080;-67
2023/01/17 03:13:05;;;;;;;1.00;0.90;;;3.70;99.90;;;;;;5015129;28;20072;-66
2023/01/17 03:15:30;;;;;;;4.78;0.90;;;3.60;99.90;;;;;;5015409;28;20068;-66
2023/01/17 03:18:00;;;;;;;1.73;0.98;;;3.60;99.90;;;;;;5015458;28;20028;-67
2023/01/17 03:20:26;;;;;;;0.98;0.80;;;3.60;99.90;;;;;;5015460;28;20053;-66
2023/01/17 03:22:51;;;;;;;4.20;1.25;;;3.50;99.90;;;;;;5015991;28;20060;-66
2023/01/17 03:25:17;;;;;;;1.08;0.93;;;3.40;99.90;;;;;;5015321;28;20033;-66
2023/01/17 03:27:42;;;;;;;4.25;1.08;;;3.40;99.90;;;;;;5033330;28;20032;-66
2023/01/17 03:30:09;;;;;;;3.72;1.10;;;3.30;99.90;;;;;;5015173;28;20026;-66
2023/01/17 03:32:34;;;;;;;1.35;1.00;;;3.30;99.90;;;;;;5015175;28;20017;-66
2023/01/17 03:35:00;;;;;;;2.17;1.02;;;3.30;99.90;;;;;;5015227;28;20029;-66
2023/01/17 03:37:25;;;;;;;2.95;0.90;;;3.40;99.90;;;;;;5015224;28;20105;-67
2023/01/17 03:39:51;;;;;;;4.85;1.30;;;3.50;99.90;;;;;;5032875;28;20104;-66
2023/01/17 03:42:16;;;;;;;3.72;1.20;;;3.30;99.90;;;;;;5015614;28;20021;-66
2023/01/17 03:44:42;;;;;;;2.17;0.90;;;3.30;99.90;;;;;;5015711;28;20048;-66
2023/01/17 03:47:10;;;;;;;2.53;0.93;;;3.30;99.90;;;;;;5032700;28;20024;-66
2023/01/17 03:49:37;;;;;;;2.35;1.00;;;3.30;99.90;;;;;;5015959;28;20018;-66
2023/01/17 03:52:02;;;;;;;4.38;1.15;;;3.30;99.90;;;;;;5015735;28;20025;-66
2023/01/17 03:54:28;;;;;;;4.00;1.63;;;3.40;99.90;;;;;;5032855;28;20022;-67
2023/01/17 03:56:53;;;;;;;3.13;0.90;;;3.40;99.90;;;;;;5015077;28;20029;-67
2023/01/17 03:59:19;;;;;;;4.95;0.95;;;3.40;99.90;;;;;;5032924;28;20369;-67
2023/01/17 04:01:44;;;;;;;2.75;1.20;;;3.40;99.90;;;;;;5015791;28;20025;-67
2023/01/17 04:04:10;;;;;;;7.65;1.48;;;3.40;99.90;;;;;;5015056;28;20026;-67
2023/01/17 04:06:36;;;;;;;5.75;1.38;;;3.40;99.90;;;;;;5014838;28;20088;-67
2023/01/17 04:09:01;;;;;;;4.20;1.27;;;3.50;99.90;;;;;;5015660;28;20075;-67
2023/01/17 04:11:27;;;;;;;3.70;0.93;;;3.50;99.90;;;;;;5015662;28;20029;-67
2023/01/17 04:13:54;;;;;;;2.65;1.17;;;3.70;99.90;;;;;;5033778;28;20026;-67
2023/01/17 04:16:28;;;;;;;2.58;1.05;;;3.70;99.90;;;;;;5019396;28;20029;-67
2023/01/17 04:18:53;;;;;;;2.80;1.02;;;3.80;99.90;;;;;;5018687;28;20026;-67
2023/01/17 04:21:19;;;;;;;1.75;0.80;;;3.70;99.90;;;;;;5019322;28;20025;-67
2023/01/17 04:23:44;;;;;;;2.28;0.85;;;3.70;99.90;;;;;;5018418;28;20451;-67
2023/01/17 04:26:11;;;;;;;5.50;1.30;;;3.70;99.90;;;;;;5018225;28;20032;-67
2023/01/17 04:28:37;;;;;;;4.57;1.02;;;3.60;99.90;;;;;;5036492;28;20026;-67
2023/01/17 04:31:02;;;;;;;0.57;0.45;;;3.70;99.90;;;;;;5036845;28;20124;-67
2023/01/17 04:33:28;;;;;;;2.95;0.77;;;3.70;99.90;;;;;;5018438;28;20093;-67
2023/01/17 04:35:54;;;;;;;1.00;0.73;;;3.70;99.90;;;;;;5036874;28;20037;-66
2023/01/17 04:38:20;;;;;;;2.88;0.55;;;3.70;99.90;;;;;;5018518;28;20072;-67
2023/01/17 04:40:46;;;;;;;1.73;0.93;;;3.70;99.90;;;;;;5018164;28;20033;-67
2023/01/17 04:43:11;;;;;;;5.00;0.95;;;3.80;99.90;;;;;;5018079;28;20036;-67
2023/01/17 04:45:37;;;;;;;9.00;1.05;;;3.80;99.90;;;;;;5017902;28;20029;-66
2023/01/17 04:48:06;;;;;;;1.23;0.80;;;3.70;99.90;;;;;;5035815;28;20025;-66
2023/01/17 04:50:32;;;;;;;1.23;0.63;;;3.70;99.90;;;;;;5018329;28;20028;-66
2023/01/17 04:52:58;;;;;;;1.90;0.57;;;3.70;99.90;;;;;;5017989;28;20025;-66
2023/01/17 04:55:24;;;;;;;1.40;0.75;;;3.60;99.90;;;;;;5018467;28;20079;-66
2023/01/17 04:57:50;;;;;;;2.10;1.05;;;3.60;99.90;;;;;;5035516;28;20469;-66
2023/01/17 05:00:16;;;;;;;1.60;0.70;;;3.50;99.90;;;;;;5035564;28;20044;-66
2023/01/17 05:02:41;;;;;;;1.85;0.60;;;3.50;99.90;;;;;;5017356;28;20032;-66
2023/01/17 05:05:07;;;;;;;1.67;0.60;;;3.50;99.90;;;;;;5018047;28;20025;-67
2023/01/17 05:07:33;;;;;;;1.60;0.70;;;3.40;99.90;;;;;;5035291;28;20036;-67
2023/01/17 05:09:59;;;;;;;1.85;0.43;;;3.50;99.90;;;;;;5035387;28;20021;-66
2023/01/17 05:12:26;;;;;;;2.78;0.70;;;3.40;99.90;;;;;;5017488;28;20044;-67
2023/01/17 05:14:52;;;;;;;0.73;0.50;;;3.40;99.90;;;;;;5035408;28;20022;-67
2023/01/17 05:17:17;;;;;;;1.88;0.70;;;3.50;99.90;;;;;;5017372;28;20055;-67
2023/01/17 05:19:43;;;;;;;9.57;0.77;;;3.40;99.90;;;;;;5035192;28;20029;-67
2023/01/17 05:22:15;;;;;;;0.85;0.50;;;3.40;99.90;;;;;;5017186;28;20029;-67
2023/01/17 05:24:42;;;;;;;1.50;0.73;;;3.40;99.90;;;;;;5018487;28;20021;-67
2023/01/17 05:27:07;;;;;;;0.93;0.38;;;3.50;99.90;;;;;;5016342;28;20079;-67
2023/01/17 05:29:33;;;;;;;6.55;0.68;;;3.50;99.90;;;;;;5035210;28;20021;-67
2023/01/17 05:31:58;;;;;;;1.05;0.60;;;3.50;99.90;;;;;;5034813;28;20080;-67
2023/01/17 05:34:24;;;;;;;1.30;0.50;;;3.50;99.90;;;;;;5017713;28;20013;-68
2023/01/17 05:36:49;;;;;;;1.17;0.50;;;3.50;99.90;;;;;;5017824;28;20080;-67
2023/01/17 05:39:15;;;;;;;1.25;0.68;;;3.50;99.90;;;;;;5017085;28;20030;-67
2023/01/17 05:41:40;;;;;;;2.65;0.80;;;3.50;99.90;;;;;;5027346;22;20033;-67
2023/01/17 05:44:06;;;;;;;2.05;0.75;;;3.60;99.90;;;;;;5055792;28;20037;-67
2023/01/17 05:46:32;;;;;;;4.78;0.95;;;3.60;99.90;;;;;;5056821;28;20036;-67
2023/01/17 05:48:57;;;;;;;1.25;0.70;;;3.60;99.90;;;;;;5056933;28;20025;-67
2023/01/17 05:51:23;;;;;;;1.67;0.70;;;3.50;99.90;;;;;;5056504;28;20020;-68
2023/01/17 05:53:48;;;;;;;3.55;0.77;;;3.50;99.90;;;;;;5057208;28;20048;-70
2023/01/17 05:56:14;;;;;;;2.10;0.70;;;3.50;99.90;;;;;;5074615;28;20028;-70
2023/01/17 05:58:40;;;;;;;2.85;0.80;;;3.50;99.90;;;;;;5056642;28;20021;-69
2023/01/17 06:01:05;;;;;;;2.08;0.85;;;3.50;99.90;;;;;;5074263;28;20427;-69
2023/01/17 06:03:31;;;;;;;2.33;0.80;;;3.50;99.90;;;;;;5074619;28;20020;-69
2023/01/17 06:05:56;;;;;;;1.83;0.75;;;3.50;99.90;;;;;;5074554;28;20039;-68
2023/01/17 06:08:22;;;;;;;1.95;0.80;;;3.50;99.90;;;;;;5057268;28;20078;-69
2023/01/17 06:10:48;;;;;;;2.72;0.70;;;3.40;99.90;;;;;;5056462;28;20103;-67
2023/01/17 06:13:15;;;;;;;2.33;0.73;;;3.40;99.90;;;;;;5056676;28;20017;-67
2023/01/17 06:15:41;;;;;;;1.88;0.75;;;3.40;99.90;;;;;;5074015;28;20020;-67
2023/01/17 06:18:12;;;;;;;1.50;0.93;;;3.50;99.90;;;;;;5058568;28;20051;-67
2023/01/17 06:20:38;;;;;;;3.97;0.77;;;3.50;99.90;;;;;;5056970;28;20036;-67
2023/01/17 06:23:06;;;;;;;1.60;0.93;;;3.40;99.90;;;;;;5067826;22;20118;-67
2023/01/17 06:25:43;;;;;;;3.03;0.63;;;3.40;99.90;;;;;;5035191;28;20036;-67
2023/01/17 06:28:10;;;;;;;3.25;0.80;;;3.40;99.90;;;;;;5034963;28;20480;-67
2023/01/17 06:30:36;;;;;;;1.75;1.10;;;3.50;99.90;;;;;;5053077;28;20021;-67
2023/01/17 06:33:03;;;;;;;2.78;0.77;;;3.50;99.90;;;;;;5052783;28;20013;-67
2023/01/17 06:35:29;;;;;;;3.85;0.98;;;3.50;99.90;;;;;;5034860;28;20032;-67
2023/01/17 06:37:56;;;;;;;1.00;0.73;;;3.40;99.90;;;;;;5035027;28;20025;-67
2023/01/17 06:40:23;;;;;;;1.13;0.50;;;3.30;99.90;;;;;;5052682;28;20040;-67
2023/01/17 06:42:49;;;;;;;1.45;0.90;;;3.20;99.90;;;;;;5035078;28;20029;-67
2023/01/17 06:45:14;;;;;;;1.75;0.93;;;3.20;99.90;;;;;;5035505;28;20024;-67
2023/01/17 06:47:40;;;;;;;3.50;1.52;;;3.30;99.90;;;;;;5035142;28;20028;-67
2023/01/17 06:50:09;;;;;;;2.63;1.08;;;3.30;99.90;;;;;;5035089;28;20131;-67
2023/01/17 06:52:34;;;;;;;6.95;1.00;;;3.20;99.90;;;;;;5052778;28;20103;-67
2023/01/17 06:55:00;;;;;;;2.85;0.93;;;3.00;99.90;;;;;;5035745;28;20124;-67
2023/01/17 06:57:25;;;;;;;2.13;1.00;;;2.90;99.90;;;;;;5052504;28;20048;-67
2023/01/17 06:59:51;;;;;;;1.55;1.00;;;3.00;99.90;;;;;;5052422;28;20064;-67
2023/01/17 07:02:16;;;;;;;5.05;1.13;;;3.00;99.90;;;;;;5034803;28;20024;-67
2023/01/17 07:04:42;;;;;;;3.25;1.58;;;3.00;99.90;;;;;;5035383;28;20021;-67
2023/01/17 07:07:07;;;;;;;6.32;1.25;;;3.00;99.90;;;;;;5034573;28;20033;-66
2023/01/17 07:09:33;;;;;;;1.73;1.10;;;3.00;99.90;;;;;;5034478;28;20018;-66
2023/01/17 07:12:00;;;;;;;2.65;0.90;;;3.00;99.90;;;;;;5034363;28;20055;-66
2023/01/17 07:14:27;;;;;;;5.25;1.13;;;3.00;99.90;;;;;;5052178;28;20030;-67
2023/01/17 07:16:53;;;;;;;1.80;1.30;;;3.00;99.90;;;;;;5052164;28;20040;-67
2023/01/17 07:19:19;;;;;;;2.53;1.20;;;2.90;99.90;;;;;;5034527;28;20056;-67
2023/01/17 07:21:45;;;;;;;6.00;1.20;;;3.00;99.90;;;;;;5034244;28;20071;-67
2023/01/17 07:24:10;;;;;;;2.28;1.20;;;3.00;99.90;;;;;;4998435;28;1049896;-67
2023/01/17 07:26:36;;;;;;;6.22;1.27;;;3.10;99.90;;;;;;5035902;28;20025;-66
2023/01/17 07:29:04;;;;;;;5.57;1.50;;;3.00;99.90;;;;;;5035856;28;20029;-67
2023/01/17 07:31:32;;;;;;;4.03;1.20;;;3.10;99.90;;;;;;5034854;28;20083;-67
2023/01/17 07:33:58;;;;;;;3.13;1.40;;;3.00;99.90;;;;;;5035211;28;20021;-67
2023/01/17 07:36:23;;;;;;;3.97;1.13;;;3.00;99.90;;;;;;5036097;28;20037;-67
2023/01/17 07:38:49;;;;;;;1.58;1.40;;;3.00;99.90;;;;;;5052806;28;20025;-67
2023/01/17 07:41:14;;;;;;;4.28;1.20;;;2.90;99.90;;;;;;5035338;28;20017;-67
2023/01/17 07:43:40;;;;;;;2.97;1.20;;;2.90;99.90;;;;;;5034776;28;20025;-67
2023/01/17 07:46:06;;;;;;;4.85;1.50;;;2.80;99.90;;;;;;5034781;28;20071;-67
2023/01/17 07:48:32;;;;;;;1.90;1.40;;;2.90;99.90;;;;;;5053319;28;20021;-67
2023/01/17 07:50:58;;;;;;;3.65;1.30;;;2.90;99.90;;;;;;5056840;28;20383;-67
2023/01/17 07:53:28;;;;;;;4.70;1.55;;;3.00;99.90;;;;;;5038628;28;20029;-67
2023/01/17 07:55:54;;;;;;;4.82;1.45;;;2.90;99.90;;;;;;5039620;28;20021;-67
2023/01/17 07:58:20;;;;;;;4.30;1.38;;;2.90;99.90;;;;;;5038939;28;20028;-67
2023/01/17 08:00:46;;;;;;;6.05;1.80;;;3.00;99.90;;;;;;5038472;28;20119;-67
2023/01/17 08:03:15;;;;;;;3.42;1.98;;;2.90;99.90;;;;;;5038463;28;20049;-67
2023/01/17 08:05:42;;;;;;;7.22;1.83;;;2.80;99.90;;;;;;5056224;28;20029;-67
2023/01/17 08:08:08;;;;;;;3.75;1.42;;;2.90;99.90;;;;;;5038444;28;20028;-67
2023/01/17 08:10:33;;;;;;;3.13;1.58;;;2.90;99.90;;;;;;5038383;28;20025;-67
2023/01/17 08:12:59;;;;;;;2.17;1.30;;;3.00;99.90;;;;;;5039118;28;20017;-67
2023/01/17 08:15:25;;;;;;;3.40;1.35;;;3.10;99.90;;;;;;5038653;28;20093;-67
2023/01/17 08:17:56;;;;;;;4.78;1.27;;;3.10;99.90;;;;;;5056102;28;20028;-67
2023/01/17 08:20:22;;;;;;;1.17;0.98;;;3.20;99.90;;;;;;5056210;28;20024;-67
2023/01/17 08:22:47;;;;;;;3.55;1.70;;;3.20;99.90;;;;;;5038165;28;20055;-67
2023/01/17 08:25:13;;;;;;;3.50;1.42;;;3.40;99.90;;;;;;5038277;28;20089;-67
2023/01/17 08:27:39;;;;;;;1.90;1.40;;;3.40;99.90;;;;;;5038374;28;20025;-67
2023/01/17 08:30:05;;;;;;;2.97;1.50;;;3.40;99.90;;;;;;5055956;28;20017;-67
2023/01/17 08:32:31;;;;;;;2.47;1.20;;;3.40;99.90;;;;;;5056084;28;20116;-67
2023/01/17 08:34:57;;;;;;;7.25;1.52;;;3.40;99.90;;;;;;5038541;28;20107;-67
2023/01/17 08:37:23;;;;;;;2.25;1.35;;;3.50;99.90;;;;;;5056024;28;20488;-67
2023/01/17 08:39:48;;;;;;;5.95;1.55;;;3.50;99.90;;;;;;5038149;28;20128;-67
2023/01/17 08:42:14;;;;;;;2.70;1.70;;;3.50;99.90;;;;;;5055636;28;20051;-67
2023/01/17 08:44:42;;;;;;;4.50;1.65;;;3.50;99.90;;;;;;5055918;28;20025;-67
2023/01/17 08:47:08;;;;;;;1.73;1.48;;;3.50;99.90;;;;;;5037734;28;20028;-67
2023/01/17 08:49:33;;;;;;;4.15;1.40;;;3.50;99.90;;;;;;5037730;28;20021;-67
2023/01/17 08:51:59;;;;;;;4.25;1.33;;;3.50;99.90;;;;;;5037895;28;20120;-67
2023/01/17 08:54:24;;;;;;;4.15;1.95;;;3.50;99.90;;;;;;5055585;28;20025;-67
2023/01/17 08:56:51;;;;;;;4.60;1.35;;;3.50;99.90;;;;;;5037482;28;20033;-67
2023/01/17 08:59:17;;;;;;;1.90;1.42;;;3.60;99.90;;;;;;5037830;28;20460;-67
2023/01/17 09:01:44;;;;;;;2.70;1.38;;;3.60;99.90;;;;;;5053950;28;20111;-67
2023/01/17 09:04:11;;;;;;;1.77;1.50;;;3.60;99.90;;;;;;5037322;28;20036;-67
2023/01/17 09:06:38;;;;;;;2.80;1.38;;;3.70;99.90;;;;;;5037375;28;20021;-67
2023/01/17 09:09:04;;;;;;;2.20;1.38;;;3.70;99.90;;;;;;5038108;28;20021;-67
2023/01/17 09:11:30;;;;;;;2.65;1.33;;;3.70;99.90;;;;;;5037419;28;20031;-67
2023/01/17 09:13:56;;;;;;;3.00;1.50;;;3.80;99.90;;;;;;5055120;28;20025;-67
2023/01/17 09:16:21;;;;;;;3.50;1.83;;;3.80;99.90;;;;;;5037055;28;20021;-67
2023/01/17 09:18:47;;;;;;;3.25;1.70;;;3.70;99.90;;;;;;5055750;28;20040;-67
2023/01/17 09:21:15;;;;;;;5.97;1.70;;;3.80;99.90;;;;;;5055016;28;20033;-67
2023/01/17 09:23:41;;;;;;;5.85;1.52;;;3.80;99.90;;;;;;5036907;28;20071;-68
2023/01/17 09:26:18;;;;;;;2.25;1.13;;;3.80;99.90;;;;;;5038025;28;20033;-67
2023/01/17 09:28:43;;;;;;;6.82;1.73;;;3.90;99.90;;;;;;5055190;28;20048;-68
2023/01/17 09:31:09;;;;;;;6.70;2.13;;;4.00;99.90;;;;;;5054852;28;20360;-68
2023/01/17 09:33:35;;;;;;;2.83;1.45;;;4.00;99.90;;;;;;5036905;28;20076;-68
2023/01/17 09:36:03;;;;;;;4.95;1.38;;;4.00;99.90;;;;;;5036842;28;20111;-68
2023/01/17 09:38:29;;;;;;;5.25;1.38;;;4.10;99.90;;;;;;5037152;28;20056;-68
2023/01/17 09:40:54;;;;;;;4.78;1.25;;;4.20;99.90;;;;;;5037310;28;20029;-68
2023/01/17 09:43:29;;;;;;;2.92;1.65;;;4.10;99.90;;;;;;5055048;28;20074;-68
2023/01/17 09:45:54;;;;;;;4.55;1.45;;;4.20;99.90;;;;;;5037922;28;20022;-68
2023/01/17 09:48:41;;;;;;;4.97;1.55;;;4.30;99.90;;;;;;5037023;28;20017;-68
2023/01/17 09:51:19;;;;;;;7.70;1.67;;;4.30;99.90;;;;;;5036880;28;20025;-68
2023/01/17 09:53:45;;;;;;;2.22;1.60;;;4.40;99.90;;;;;;5037325;28;20021;-67
2023/01/17 09:56:15;;;;;;;3.78;1.30;;;4.40;99.90;;;;;;5054553;28;20025;-68
2023/01/17 09:59:27;;;;;;;3.50;1.20;;;4.50;99.90;;;;;;5036569;28;20021;-67
2023/01/17 10:02:03;;;;;;;3.00;1.63;;;4.50;99.90;;;;;;5050856;28;20033;-67
2023/01/17 10:05:06;;;;;;;3.50;1.63;;;4.50;99.90;;;;;;5037288;28;20033;-68
2023/01/17 10:07:58;;;;;;;7.90;2.22;;;4.60;99.90;;;;;;5037058;28;20036;-68
2023/01/17 10:10:27;;;;;;;5.82;1.65;;;4.70;99.90;;;;;;5037069;28;20028;-68
2023/01/17 10:13:14;;;;;;;2.80;1.67;;;4.70;99.90;;;;;;5035887;28;20021;-68
2023/01/17 10:16:09;;;;;;;6.97;1.95;;;4.90;99.90;;;;;;5054356;28;20032;-68
2023/01/17 10:18:56;;;;;;;3.03;1.30;;;4.80;99.90;;;;;;5054000;28;20085;-68
2023/01/17 10:21:33;;;;;;;2.22;1.27;;;5.00;99.90;;;;;;5036492;28;20067;-68
2023/01/17 10:24:15;;;;;;;4.30;1.60;;;5.10;99.90;;;;;;5036365;28;20476;-68
2023/01/17 10:26:42;;;;;;;8.68;1.35;;;5.10;99.90;;;;;;5036140;28;20032;-68
2023/01/17 10:29:15;;;;;;;2.85;1.15;;;5.20;99.90;;;;;;5054731;28;20029;-67
2023/01/17 10:31:50;;;;;;;6.45;1.70;;;5.20;99.90;;;;;;5054075;28;20021;-67
2023/01/17 10:34:24;;;;;;;5.13;2.20;;;5.50;99.90;;;;;;5054582;28;20075;-67
2023/01/17 10:36:59;;;;;;;2.35;1.58;;;5.60;99.90;;;;;;5054386;28;20021;-67
2023/01/17 10:39:27;;;;;;;2.30;1.40;;;5.80;99.90;;;;;;5036050;28;20029;-66
2023/01/17 10:42:05;;;;;;;4.80;1.70;;;5.90;99.90;;;;;;5035637;28;20488;-67
2023/01/17 10:44:51;;;;;;;8.25;2.10;;;5.90;99.90;;;;;;5036208;28;20064;-67
2023/01/17 10:47:23;;;;;;;5.35;1.70;;;6.00;99.90;;;;;;5053836;28;20048;-67
2023/01/17 10:49:53;;;;;;;5.55;1.60;;;6.00;99.90;;;;;;5035554;28;20025;-67
2023/01/17 10:52:32;;;;;;;7.25;2.33;;;6.10;99.90;;;;;;5035047;28;20039;-67
2023/01/17 10:55:23;;;;;;;2.70;1.63;;;6.30;99.90;;;;;;5053388;28;20059;-67
2023/01/17 10:57:50;;;;;;;3.72;1.50;;;6.50;99.90;;;;;;5035465;28;20029;-67
2023/01/17 11:00:31;;;;;;;3.30;2.10;;;6.50;99.90;;;;;;5036274;28;20522;-67
2023/01/17 11:02:57;;;;;;;6.15;2.22;;;6.50;99.90;;;;;;5035797;28;20543;-67
2023/01/17 11:05:30;;;;;;;2.85;1.85;;;6.70;99.90;;;;;;5053218;28;20079;-67
2023/01/17 11:08:07;;;;;;;8.82;3.15;;;6.80;99.90;;;;;;5035534;28;20025;-67
2023/01/17 11:10:48;;;;;;;10.13;3.85;;;6.90;99.90;;;;;;5053789;28;20025;-68
2023/01/17 11:13:44;;;;;;;6.97;2.97;;;7.00;99.90;;;;;;5036400;28;20108;-67
2023/01/17 11:16:18;;;;;;;4.60;2.85;;;7.30;99.90;;;;;;4937317;29;20039;-67
2023/01/17 11:18:44;;;;;;;3.30;1.70;;;7.50;99.90;;;;;;4937951;29;20059;-67
2023/01/17 11:21:20;;;;;;;2.67;1.10;;;7.40;99.90;;;;;;4954697;29;20066;-67
2023/01/17 11:23:52;;;;;;;2.47;1.30;;;7.20;99.90;;;;;;4936386;29;20067;-67
2023/01/17 11:26:29;;;;;;;6.43;1.55;;;6.80;99.90;;;;;;4953493;29;20042;-67
2023/01/17 11:29:27;;;;;;;3.47;1.40;;;6.90;99.90;;;;;;4938053;29;20019;-67
2023/01/17 11:31:55;;;;;;;2.95;1.50;;;7.30;99.90;;;;;;4937449;29;20031;-67
2023/01/17 11:34:30;;;;;;;5.20;2.10;;;7.60;99.90;;;;;;4936953;29;20086;-67
2023/01/17 11:37:16;;;;;;;3.75;1.80;;;7.90;99.90;;;;;;4936770;29;20031;-67
2023/01/17 11:39:42;;;;;;;4.10;1.42;;;7.80;99.90;;;;;;4937334;29;20071;-67
2023/01/17 11:42:32;;;;;;;5.53;1.70;;;7.90;99.90;;;;;;4937256;29;20028;-67
2023/01/17 11:45:22;;;;;;;2.63;1.42;;;8.10;99.90;;;;;;4936763;29;20106;-67
2023/01/17 11:47:48;;;;;;;5.80;1.48;;;8.30;99.90;;;;;;4952933;29;20031;-67
2023/01/17 11:50:24;;;;;;;3.55;1.77;;;8.20;99.90;;;;;;4952675;29;20086;-67
2023/01/17 11:52:50;;;;;;;2.03;1.27;;;8.20;99.90;;;;;;4998812;28;20032;-67
2023/01/17 11:55:16;;;;;;;3.90;1.75;;;7.90;99.90;;;;;;5034734;28;20021;-67
2023/01/17 11:57:48;;;;;;;2.80;1.10;;;7.70;99.90;;;;;;5034570;28;20017;-67
2023/01/17 12:00:22;;;;;;;2.50;1.73;;;7.70;99.90;;;;;;5034860;28;20032;-67
2023/01/17 12:03:18;;;;;;;3.55;1.23;;;7.60;99.90;;;;;;5034560;28;20025;-67
2023/01/17 12:06:10;;;;;;;3.72;1.48;;;7.40;99.90;;;;;;5052790;28;20037;-67
2023/01/17 12:08:57;;;;;;;6.68;2.08;;;7.50;99.90;;;;;;5034756;28;20024;-67
2023/01/17 12:11:35;;;;;;;1.77;1.38;;;7.80;99.90;;;;;;5052523;28;20017;-67
2023/01/17 12:14:35;;;;;;;1.65;1.25;;;7.90;99.90;;;;;;5072917;23;20047;-72
2023/01/17 12:17:48;;;;;;;3.20;1.40;;;7.80;99.90;;;;;;5053158;28;20037;-72
2023/01/17 12:20:49;;;;;;;8.15;1.58;;;7.30;99.90;;;;;;4971661;28;20174;-72
2023/01/17 12:23:32;;;;;;;3.30;1.27;;;6.90;99.90;;;;;;4971714;28;20596;-72
2023/01/17 12:26:06;;;;;;;1.80;1.05;;;6.50;99.90;;;;;;4972071;28;20038;-72
2023/01/17 12:28:53;;;;;;;2.03;1.05;;;6.30;99.90;;;;;;4955553;28;20133;-72
2023/01/17 12:31:24;;;;;;;2.88;1.40;;;6.50;99.90;;;;;;4971881;28;20042;-73
2023/01/17 12:33:52;;;;;;;2.55;1.25;;;6.90;99.90;;;;;;4971694;28;20037;-72
2023/01/17 12:36:39;;;;;;;2.40;1.63;;;7.30;99.90;;;;;;4974452;28;20027;-72
2023/01/17 12:39:08;;;;;;;1.52;1.10;;;7.20;99.90;;;;;;4959367;28;20027;-72
2023/01/17 12:41:46;;;;;;;2.97;1.02;;;6.70;99.90;;;;;;4974905;28;20162;-72
2023/01/17 12:44:15;;;;;;;3.67;1.45;;;6.90;99.90;;;;;;4975070;28;20038;-72
2023/01/17 12:46:59;;;;;;;2.78;1.15;;;7.00;99.90;;;;;;4958737;28;20033;-72
2023/01/17 12:50:09;;;;;;;1.67;0.82;;;7.00;99.90;;;;;;4975234;28;20035;-72
2023/01/17 12:52:44;;;;;;;3.58;1.48;;;6.80;99.90;;;;;;4936341;29;20039;-72
2023/01/17 12:55:26;;;;;;;2.00;1.00;;;6.30;99.90;;;;;;4920287;29;20039;-73
2023/01/17 12:57:57;;;;;;;2.42;0.82;;;6.40;99.90;;;;;;4958503;28;20065;-72
2023/01/17 13:00:28;;;;;;;6.03;1.20;;;6.50;99.90;;;;;;4958837;28;20126;-72
2023/01/17 13:03:38;;;;;;;1.67;1.20;;;6.50;99.90;;;;;;4974734;28;20261;-72
2023/01/17 13:06:05;;;;;;;2.05;0.90;;;6.60;99.90;;;;;;4955105;29;20086;-73
2023/01/17 13:08:45;;;;;;;1.83;0.65;;;6.80;99.90;;;;;;4970941;28;20035;-73
2023/01/17 13:11:28;;;;;;;1.00;0.85;;;6.60;99.90;;;;;;4974798;28;20044;-73
2023/01/17 13:13:58;;;;;;;4.88;1.00;;;6.50;99.90;;;;;;4974125;28;20031;-72
2023/01/17 13:16:37;;;;;;;2.75;1.08;;;6.60;99.90;;;;;;4974592;28;20035;-72
2023/01/17 13:19:14;;;;;;;4.35;1.20;;;6.90;99.90;;;;;;4974947;28;20054;-72
2023/01/17 13:21:40;;;;;;;1.45;0.80;;;6.60;99.90;;;;;;4974440;28;20110;-72
2023/01/17 13:24:25;;;;;;;1.58;0.73;;;6.30;99.90;;;;;;4958218;28;20129;-72
2023/01/17 13:27:15;;;;;;;3.60;0.98;;;6.30;99.90;;;;;;4974031;28;20051;-72
2023/01/17 13:30:02;;;;;;;2.67;0.85;;;6.30;99.90;;;;;;5012644;28;20035;-71
2023/01/17 13:33:00;;;;;;;5.15;0.85;;;6.10;99.90;;;;;;5033770;28;20048;-70
2023/01/17 13:35:42;;;;;;;2.30;0.80;;;5.90;99.90;;;;;;5034962;28;20017;-70
2023/01/17 13:38:40;;;;;;;2.35;0.82;;;5.70;99.90;;;;;;5035414;28;20017;-71
2023/01/17 13:41:35;;;;;;;2.90;1.08;;;5.60;99.90;;;;;;5033691;28;20036;-71
2023/01/17 13:46:59;;;;;;;6.40;1.48;;;5.40;99.90;;;;;;5033935;28;20032;-71
2023/01/17 13:49:28;;;;;;;1.75;1.17;;;5.40;99.90;;;;;;5034837;28;20018;-71
2023/01/17 13:52:11;;;;;;;3.88;1.73;;;5.50;99.90;;;;;;5034482;28;20017;-72
2023/01/17 13:54:47;;;;;;;3.42;1.10;;;5.40;99.90;;;;;;5034734;28;20026;-72
2023/01/17 13:57:25;;;;;;;4.72;1.58;;;5.40;99.90;;;;;;5033097;28;20033;-72
2023/01/17 13:59:55;;;;;;;3.10;1.35;;;5.30;99.90;;;;;;5034961;28;20079;-72
2023/01/17 14:02:35;;;;;;;2.53;0.90;;;5.20;99.90;;;;;;5032914;28;20029;-72
2023/01/17 14:05:11;;;;;;;9.10;1.30;;;5.20;99.90;;;;;;5034317;28;20029;-72
2023/01/17 14:07:46;;;;;;;1.35;0.85;;;5.30;99.90;;;;;;5034431;28;20025;-72
2023/01/17 14:10:39;;;;;;;7.30;1.10;;;5.30;99.90;;;;;;5033813;28;20040;-72
2023/01/17 14:13:30;;;;;;;4.18;1.30;;;5.30;99.90;;;;;;5033189;28;20116;-72
2023/01/17 14:15:56;;;;;;;2.05;1.00;;;5.30;99.90;;;;;;5032881;28;20053;-72
2023/01/17 14:18:37;;;;;;;3.75;1.13;;;5.30;99.90;;;;;;5033057;28;20103;-72
2023/01/17 14:21:25;;;;;;;4.13;1.30;;;5.30;99.90;;;;;;5032733;28;20025;-72
2023/01/17 14:23:57;;;;;;;5.97;1.50;;;5.30;99.90;;;;;;5033475;28;20083;-72
2023/01/17 14:26:39;;;;;;;2.90;0.82;;;5.30;99.90;;;;;;5033878;28;20112;-72
2023/01/17 14:29:43;;;;;;;2.72;1.25;;;5.30;99.90;;;;;;5033471;28;20029;-72
2023/01/17 14:32:12;;;;;;;11.15;1.25;;;5.20;99.90;;;;;;5032958;28;20022;-72
2023/01/17 14:34:38;;;;;;;4.03;1.55;;;5.30;99.90;;;;;;5032818;28;20093;-72
2023/01/17 14:37:14;;;;;;;1.30;1.02;;;5.40;99.90;;;;;;5033781;28;20017;-72
2023/01/17 14:39:49;;;;;;;3.50;0.90;;;5.50;99.90;;;;;;5033941;28;20108;-72
2023/01/17 14:42:17;;;;;;;4.65;1.10;;;5.50;99.90;;;;;;5032934;28;20021;-72
2023/01/17 14:44:53;;;;;;;8.10;2.72;;;5.60;99.90;;;;;;5032397;28;20026;-72
2023/01/17 14:47:21;;;;;;;15.65;4.78;;;5.70;99.90;;;;;;5032244;28;20064;-72